Time;durP1;ratioP1;P1;durP2;ratioP2;P2;SDS_P1;SDS_P2;PMS_P1;PMS_P2;Temp;Humidity;BMP_temperature;BMP_pressure;BME280_temperature;BME280_humidity;BME280_pressure;Samples;Min_cycle;Max_cycle;Signal;HPM_P1;HPM_P2
2021/03/01 00:02:20;;;;;;;;;;;;;;;;;;;;;
2021/03/01 00:13:14;;;;;;;;;;;2.80;99.90;;;0.61;78.22;97043.69;10351842;28;1677;-84
2021/03/01 00:19:02;;;;;;;;;;;1.70;99.90;;;0.51;78.54;97038.66;10309600;28;2159;-86
2021/03/01 00:24:14;;;;;;;;;;;1.50;99.90;;;0.46;78.89;97033.09;10317709;28;2788;-87
2021/03/01 00:29:34;;;;;;;;;;;1.50;99.90;;;0.35;79.00;97044.09;10297472;28;2337;-86
2021/03/01 00:35:00;;;;;;;;;;;1.30;99.90;;;0.30;79.13;97037.69;10292468;28;2230;-86
2021/03/01 00:40:09;;;;;;;;;;;2.60;99.90;;;0.19;79.46;97033.63;10298570;28;2257;-85
2021/03/01 00:45:55;;;;;;;;;;;2.50;99.90;;;0.15;78.81;97025.25;10310579;28;2222;-86
2021/03/01 00:51:24;;;;;;;;;;;2.00;99.90;;;0.03;80.08;97033.75;10320851;28;1754;-87
2021/03/01 00:56:41;;;;;;;;;;;1.50;99.90;;;-0.02;80.06;97040.38;10304562;28;2311;-86
2021/03/01 01:13:08;;;;;;;;;;;1.30;99.90;;;-0.23;81.46;97050.78;10326226;28;2013;-87
2021/03/01 01:18:36;;;;;;;;;;;1.60;99.90;;;-0.26;82.39;97045.84;10286856;28;2607;-86
2021/03/01 01:30:06;;;;;;;;;;;1.70;99.90;;;-0.41;82.64;97039.66;10327520;28;2513;-87
2021/03/01 01:41:10;;;;;;;;;;;0.70;99.90;;;-0.41;83.45;97037.84;10287788;28;2601;-85
2021/03/01 01:46:20;;;;;;;;;;;1.40;99.90;;;-0.59;84.21;97046.00;10351276;28;2533;-88
2021/03/01 01:51:50;;;;;;;;;;;0.50;99.90;;;-0.69;83.89;97040.13;10329345;28;1752;-85
2021/03/01 01:57:25;;;;;;;;;;;0.60;99.90;;;-0.71;84.25;97038.63;10321534;28;2332;-88
2021/03/01 02:02:51;;;;;;;;;;;0.20;99.90;;;-0.85;85.12;97032.28;10341300;28;2186;-88
2021/03/01 02:08:21;;;;;;;;;;;;;;;;;;;;;
2021/03/01 02:13:56;;;;;;;;;;;0.90;99.90;;;-0.86;85.23;97006.88;10338845;28;2394;-88
2021/03/01 02:25:17;;;;;;;;;;;0.40;99.90;;;-0.68;85.44;97004.81;10258930;28;2795;-88
2021/03/01 02:30:38;;;;;;;;;;;0.90;99.90;;;-0.56;85.12;97008.69;10262272;29;3380;-88
2021/03/01 02:36:04;;;;;;;;;;;0.80;99.90;;;-0.71;84.56;97010.41;10261226;29;1838;-87
2021/03/01 02:41:12;;;;;;;;;;;0.60;99.90;;;-0.72;85.09;97014.06;10230047;29;2656;-85
2021/03/01 02:46:32;;;;;;;;;;;1.30;99.90;;;-0.83;85.21;97017.91;10230789;29;2372;-86
2021/03/01 02:52:00;;;;;;;;;;;0.20;99.90;;;-0.93;86.35;97021.75;10240087;29;2582;-86
2021/03/01 02:57:19;;;;;;;;;;;0.20;99.90;;;-0.87;86.14;97013.16;10294746;28;2373;-86
2021/03/01 03:08:14;;;;;;;;;;;0.20;99.90;;;-0.75;86.00;97008.31;10302294;28;2403;-87
2021/03/01 03:13:30;;;;;;;;;;;0.20;99.90;;;-0.87;85.59;97005.22;10323510;28;2216;-88
2021/03/01 03:18:49;;;;;;;;;;;0.10;99.90;;;-0.77;85.43;97010.28;10338887;28;2489;-85
2021/03/01 03:24:09;;;;;;;;;;;0.30;99.90;;;-0.89;85.18;97010.69;10311045;28;1962;-87
2021/03/01 03:30:01;;;;;;;;;;;;;;;;;;;;;
2021/03/01 03:35:18;;;;;;;;;;;0.10;99.90;;;-0.97;86.59;97015.97;10321796;28;2445;-88
2021/03/01 03:40:33;;;;;;;;;;;0.00;99.90;;;-1.08;85.90;97013.72;10328302;28;2452;-87
2021/03/01 03:45:48;;;;;;;;;;;1.50;99.90;;;-1.03;86.32;97027.22;10298873;28;2494;-86
2021/03/01 03:50:58;;;;;;;;;;;0.00;99.90;;;-0.96;85.50;97027.34;10334758;28;2435;-86
2021/03/01 03:56:06;;;;;;;;;;;0.00;99.90;;;-1.05;86.67;97036.31;10335486;28;2250;-88
2021/03/01 04:01:11;;;;;;;;;;;2.10;99.90;;;-1.10;85.91;97027.06;10307896;28;2487;-87
2021/03/01 04:06:23;;;;;;;;;;;0.60;99.90;;;-1.11;86.01;97032.53;10310537;28;2219;-86
2021/03/01 04:11:35;;;;;;;;;;;-0.10;99.90;;;-1.10;86.57;97032.34;10327442;28;2315;-87
2021/03/01 04:17:00;;;;;;;;;;;0.60;99.90;;;-1.10;86.12;97032.34;10304592;28;1923;-88
2021/03/01 04:22:18;;;;;;;;;;;0.20;99.90;;;-1.15;86.51;97039.13;10320131;28;2500;-87
2021/03/01 04:27:28;;;;;;;;;;;0.90;99.90;;;-1.16;86.90;97038.31;10322567;28;2820;-83
2021/03/01 04:32:37;;;;;;;;;;;-0.10;99.90;;;-1.18;86.73;97039.47;10280619;28;1902;-85
2021/03/01 04:37:46;;;;;;;;;;;-0.20;99.90;;;-1.30;86.82;97035.53;10301355;28;2449;-85
2021/03/01 04:42:53;;;;;;;;;;;-0.30;99.90;;;-1.31;87.48;97032.09;10303542;28;2517;-86
2021/03/01 04:48:18;;;;;;;;;;;-0.30;99.90;;;-1.28;87.80;97029.09;10287938;28;2381;-87
2021/03/01 04:53:28;;;;;;;;;;;-0.30;99.90;;;-1.34;87.32;97024.50;10302884;28;2373;-84
2021/03/01 04:58:57;;;;;;;;;;;0.50;99.90;;;-1.23;87.55;97029.41;10299349;28;2527;-83
2021/03/01 05:04:04;;;;;;;;;;;0.50;99.90;;;-1.32;86.60;97021.72;10305562;28;2584;-87
2021/03/01 05:09:18;;;;;;;;;;;-0.30;99.90;;;-1.32;86.90;97021.72;10302834;28;2368;-83
2021/03/01 05:14:27;;;;;;;;;;;0.00;99.90;;;-1.21;86.81;97029.25;10311406;28;2420;-88
2021/03/01 05:19:45;;;;;;;;;;;1.50;99.90;;;-1.21;87.15;97019.53;10306511;28;2360;-86
2021/03/01 05:25:15;;;;;;;;;;;-0.30;99.90;;;-1.29;86.80;97016.91;10338475;28;2385;-86
2021/03/01 05:30:33;;;;;;;;;;;1.70;99.90;;;-1.24;86.89;97011.94;10280534;28;3034;-85
2021/03/01 05:35:58;;;;;;;;;;;1.40;99.90;;;-1.16;86.54;97016.38;10309180;28;2037;-86
2021/03/01 05:41:06;;;;;;;;;;;1.50;99.90;;;-1.09;86.89;97020.78;10300507;28;2548;-83
2021/03/01 05:46:21;;;;;;;;;;;0.90;99.90;;;-1.06;85.97;97011.72;10305259;28;2467;-84
2021/03/01 05:51:36;;;;;;;;;;;-0.20;99.90;;;-1.07;86.46;97023.28;10314824;28;2348;-87
2021/03/01 05:56:57;;;;;;;;;;;1.40;99.90;;;-1.01;86.63;97024.44;10329055;28;2505;-87
2021/03/01 06:02:11;;;;;;;;;;;1.40;99.90;;;-1.01;86.24;97030.53;10335522;28;2226;-88
2021/03/01 06:07:41;;;;;;;;;;;1.40;99.90;;;-0.97;86.11;97031.00;10325193;28;1902;-86
2021/03/01 06:12:46;;;;;;;;;;;2.00;99.90;;;-0.97;86.05;97031.81;10343661;28;1990;-86
2021/03/01 06:17:53;;;;;;;;;;;0.00;99.90;;;-0.95;85.83;97048.31;10297072;28;2375;-87
2021/03/01 06:23:04;;;;;;;;;;;1.50;99.90;;;-1.01;86.07;97046.34;10345473;28;2520;-89
2021/03/01 06:28:16;;;;;;;;;;;0.90;99.90;;;-0.95;85.88;97039.59;10348436;28;2373;-87
2021/03/01 06:33:36;;;;;;;;;;;0.20;99.90;;;-0.87;85.89;97052.75;10323807;28;2629;-87
2021/03/01 06:38:43;;;;;;;;;;;0.80;99.90;;;-0.84;85.44;97055.84;10355905;28;2475;-87
2021/03/01 06:43:49;;;;;;;;;;;1.50;99.90;;;-0.83;85.59;97069.88;10315317;28;2598;-83
2021/03/01 06:49:00;;;;;;;;;;;1.70;99.90;;;-0.89;85.71;97068.75;10327175;28;2580;-87
2021/03/01 06:54:27;;;;;;;;;;;0.90;99.90;;;-0.84;85.75;97073.50;10296707;28;2392;-87
2021/03/01 06:59:53;;;;;;;;;;;0.60;99.90;;;-0.78;85.19;97072.81;10330116;28;2359;-86
2021/03/01 07:04:57;;;;;;;;;;;1.60;99.90;;;-0.65;85.46;97086.31;10297292;28;2514;-87
2021/03/01 07:10:02;;;;;;;;;;;0.20;99.90;;;-0.51;84.85;97074.19;10308527;28;2136;-83
2021/03/01 07:15:24;;;;;;;;;;;0.30;99.90;;;-0.30;83.99;97076.25;10312368;28;2483;-87
2021/03/01 07:20:32;;;;;;;;;;;0.50;99.90;;;-0.21;83.34;97085.78;10300898;28;2319;-86
2021/03/01 07:25:48;;;;;;;;;;;1.80;99.90;;;-0.07;83.17;97076.28;10307992;28;2288;-86
2021/03/01 07:31:03;;;;;;;;;;;0.80;99.90;;;0.08;81.91;97068.44;10323631;23;2458;-87
2021/03/01 07:36:09;;;;;;;;;;;2.50;99.90;;;0.25;81.15;97075.22;10322984;28;2493;-88
2021/03/01 07:41:20;;;;;;;;;;;1.00;99.90;;;0.42;80.76;97076.75;10268124;28;2478;-84
2021/03/01 07:46:26;;;;;;;;;;;1.30;99.90;;;0.48;80.15;97081.34;10262572;28;2275;-83
2021/03/01 07:51:29;;;;;;;;;;;2.60;99.90;;;0.59;80.18;97084.56;10271276;28;2261;-87
2021/03/01 07:56:37;;;;;;;;;;;1.60;99.90;;;0.81;79.01;97086.34;10298304;28;1918;-86
2021/03/01 08:01:59;;;;;;;;;;;2.40;99.90;;;0.93;79.09;97090.19;10270907;28;2445;-86
2021/03/01 08:07:30;;;;;;;;;;;1.90;99.90;;;1.00;78.49;97090.28;10273752;28;1453;-86
2021/03/01 08:13:01;;;;;;;;;;;2.90;99.90;;;1.13;78.67;97084.34;10290069;28;2326;-86
2021/03/01 08:18:23;;;;;;;;;;;2.60;99.90;;;1.22;78.20;97089.41;10290848;28;2266;-84
2021/03/01 08:23:42;;;;;;;;;;;2.10;99.90;;;1.46;77.81;97087.44;10305154;28;1801;-87
2021/03/01 08:29:07;;;;;;;;;;;2.30;99.90;;;1.64;77.09;97077.28;10274053;28;2485;-88
2021/03/01 08:34:28;;;;;;;;;;;2.60;99.90;;;1.87;75.70;97091.25;10269207;28;2114;-87
2021/03/01 08:39:46;;;;;;;;;;;4.00;99.90;;;2.05;75.39;97082.06;10276385;28;2329;-88
2021/03/01 08:45:17;;;;;;;;;;;2.90;99.90;;;2.31;74.56;97090.28;10275143;28;2378;-85
2021/03/01 08:50:20;;;;;;;;;;;4.70;99.90;;;2.32;74.62;97089.25;10287908;28;2084;-86
2021/03/01 08:55:47;;;;;;;;;;;3.20;99.90;;;2.50;73.68;97086.16;10270968;28;2320;-86
2021/03/01 09:12:16;;;;;;;;;;;5.30;99.90;;;2.98;72.99;97084.50;10304532;28;2300;-85
2021/03/01 09:41:11;;;;;;;;;;;4.70;99.90;;;4.11;66.99;97077.09;10205820;28;2407;-87
2021/03/01 10:21:03;;;;;;;;;;;8.00;99.90;;;5.90;54.67;97050.25;10312686;28;2251;-85
2021/03/01 10:26:14;;;;;;;;;;;7.70;95.60;;;6.11;53.72;97036.63;10302496;28;2306;-88
2021/03/01 10:37:36;;;;;;;;;;;8.10;89.60;;;6.64;50.47;97030.09;10351803;28;2469;-85
2021/03/01 10:55:08;;;;;;;;;;;7.70;82.40;;;6.97;48.29;97025.28;10047567;29;1962;-87
2021/03/01 11:29:37;;;;;;;;;;;8.30;83.40;;;7.37;53.82;96997.31;10349412;28;2576;-86
2021/03/01 11:46:40;;;;;;;;;;;8.60;82.90;;;8.11;46.11;96978.22;10336719;28;2326;-88
2021/03/01 11:51:53;;;;;;;;;;;9.80;77.70;;;8.36;44.33;96963.88;10354103;28;2424;-86
2021/03/01 11:57:12;;;;;;;;;;;9.30;73.40;;;8.34;44.40;96961.41;10339158;28;2370;-85
2021/03/01 12:02:17;;;;;;;;;;;9.40;71.90;;;8.45;45.15;96954.44;10348152;28;2749;-87
2021/03/01 12:07:37;;;;;;;;;;;9.40;72.40;;;8.76;43.30;96944.47;10355390;28;2284;-88
2021/03/01 12:13:04;;;;;;;;;;;10.10;71.40;;;8.78;43.15;96931.63;10227570;29;2596;-86
2021/03/01 12:18:09;;;;;;;;;;;9.80;70.00;;;8.74;42.94;96923.25;10231851;29;2330;-87
2021/03/01 12:23:16;;;;;;;;;;;10.50;69.80;;;8.90;43.83;96919.03;10226946;29;2322;-87
2021/03/01 12:28:22;;;;;;;;;;;9.90;70.00;;;9.07;43.77;96911.91;10232008;29;2799;-88
2021/03/01 12:33:46;;;;;;;;;;;10.00;69.50;;;9.20;43.07;96900.91;10231145;29;2466;-88
2021/03/01 12:38:51;;;;;;;;;;;10.10;69.10;;;9.09;42.20;96901.75;10213603;29;2381;-88
2021/03/01 12:44:16;;;;;;;;;;;10.10;67.40;;;9.32;42.60;96908.13;10216032;29;2370;-88
2021/03/01 12:49:26;;;;;;;;;;;10.20;68.40;;;9.36;42.37;96894.00;10289966;28;2166;-86
2021/03/01 12:59:52;;;;;;;;;;;10.40;67.40;;;9.53;42.30;96880.63;10358109;28;2273;-89
2021/03/01 13:04:55;;;;;;;;;;;10.50;67.40;;;9.70;43.31;96878.81;10342697;28;2662;-85
2021/03/01 13:10:00;;;;;;;;;;;10.60;67.70;;;9.72;44.33;96878.56;10315751;28;2518;-86
2021/03/01 13:15:14;;;;;;;;;;;10.70;69.80;;;9.84;45.19;96873.13;10319475;28;2407;-89
2021/03/01 13:20:28;;;;;;;;;;;10.80;70.30;;;9.86;46.56;96865.63;10315633;28;1991;-87
2021/03/01 13:26:13;;;;;;;;;;;10.90;71.50;;;9.86;46.75;96866.47;10334187;28;2402;-86
2021/03/01 13:31:17;;;;;;;;;;;10.90;71.90;;;9.84;47.23;96857.03;10304012;28;2158;-87
2021/03/01 13:36:34;;;;;;;;;;;10.80;72.10;;;9.85;46.91;96862.13;10331020;28;2237;-87
2021/03/01 13:41:55;;;;;;;;;;;10.80;72.40;;;9.93;46.77;96856.41;10311122;28;2163;-87
2021/03/01 13:47:13;;;;;;;;;;;10.90;71.70;;;10.26;46.03;96849.44;10334813;28;2265;-87
2021/03/01 13:52:18;;;;;;;;;;;11.10;71.70;;;10.36;44.24;96859.50;10328015;28;2518;-85
2021/03/01 13:57:44;;;;;;;;;;;11.30;69.70;;;10.20;44.05;96851.19;10311008;28;2733;-86
2021/03/01 14:08:27;;;;;;;;;;;11.30;69.50;;;10.35;43.35;96852.50;10337255;28;2009;-91
2021/03/01 14:13:29;;;;;;;;;;;11.30;67.90;;;10.38;42.61;96857.41;10327567;28;2147;-86
2021/03/01 14:24:18;;;;;;;;;;;11.40;67.10;;;10.51;42.79;96857.06;10325766;28;2335;-85
2021/03/01 14:29:24;;;;;;;;;;;11.50;66.50;;;10.48;42.88;96858.34;10314822;28;2294;-87
2021/03/01 14:40:41;;;;;;;;;;;11.50;67.00;;;10.60;43.25;96855.56;10318202;28;2302;-87
2021/03/01 14:46:06;;;;;;;;;;;11.60;67.10;;;10.56;43.11;96849.06;10329552;28;2382;-86
2021/03/01 14:56:47;;;;;;;;;;;11.60;66.30;;;10.57;42.42;96855.28;10326012;28;2406;-87
2021/03/01 15:02:47;;;;;;;;;;;11.50;66.10;;;10.53;42.82;96853.06;10299528;28;2240;-87
2021/03/01 15:31:47;;;;;;;;;;;11.40;67.10;;;10.40;44.77;96849.91;10255644;28;2338;-85
2021/03/01 15:42:09;;;;;;;;;;;11.30;70.40;;;10.23;49.05;96853.41;10333414;28;2054;-85
2021/03/01 15:47:11;;;;;;;;;;;12.60;72.90;;;10.19;48.57;96856.81;10325320;28;2096;-85
2021/03/01 15:52:14;;;;;;;;;;;11.20;72.10;;;10.08;49.06;96855.81;10262128;28;2693;-85
2021/03/01 15:57:16;;;;;;;;;;;11.10;72.40;;;10.06;48.18;96859.81;10260264;28;2246;-83
2021/03/01 16:02:18;;;;;;;;;;;11.10;72.00;;;9.89;49.31;96849.88;10279457;28;2692;-84
2021/03/01 16:07:20;;;;;;;;;;;11.00;72.70;;;9.88;49.06;96852.81;10280956;28;2176;-84
2021/03/01 16:12:23;;;;;;;;;;;10.90;72.40;;;9.76;49.36;96860.91;10286704;28;1237;-82
2021/03/01 16:17:48;;;;;;;;;;;10.80;72.90;;;9.64;50.23;96857.47;10302347;28;1968;-84
2021/03/01 16:22:59;;;;;;;;;;;10.70;73.60;;;9.51;51.08;96858.59;10311920;28;1550;-85
2021/03/01 16:28:11;;;;;;;;;;;10.60;73.90;;;9.47;50.68;96860.09;10286232;28;1281;-83
2021/03/01 16:33:21;;;;;;;;;;;10.50;74.30;;;9.43;51.19;96867.03;10260841;28;3616;-84
2021/03/01 16:38:35;;;;;;;;;;;10.50;74.50;;;9.32;50.56;96875.94;10267011;28;1887;-85
2021/03/01 16:44:01;;;;;;;;;;;10.40;74.40;;;9.15;51.32;96870.47;10273844;28;1131;-84
2021/03/01 16:49:53;;;;;;;;;;;10.30;74.50;;;9.07;49.49;96879.72;10240351;28;1636;-85
2021/03/01 17:06:17;;;;;;;;;;;9.90;73.90;;;8.59;50.79;96888.88;10311112;28;2193;-84
2021/03/01 17:11:51;;;;;;;;;;;10.00;74.40;;;8.43;51.96;96905.66;10252161;28;2413;-83
2021/03/01 17:17:29;;;;;;;;;;;9.60;75.00;;;8.24;52.78;96907.56;10265946;28;2451;-81
2021/03/01 17:28:24;;;;;;;;;;;9.20;75.90;;;7.86;53.90;96900.75;10256983;28;2695;-85
2021/03/01 17:39:08;;;;;;;;;;;8.90;77.60;;;7.65;55.40;96911.16;10267683;28;2532;-85
2021/03/01 17:44:27;;;;;;;;;;;8.80;78.40;;;7.57;55.07;96914.94;10287203;28;2357;-84
2021/03/01 17:50:11;;;;;;;;;;;9.60;79.10;;;7.43;55.92;96908.94;10301630;28;2064;-86
2021/03/01 17:55:23;;;;;;;;;;;8.50;79.30;;;7.32;56.26;96915.09;10280345;28;2382;-83
2021/03/01 18:05:56;;;;;;;;;;;8.40;80.00;;;7.28;56.97;96919.25;10260160;28;2404;-82
2021/03/01 18:11:19;;;;;;;;;;;9.60;81.00;;;7.21;57.06;96911.31;10277535;28;2383;-83
2021/03/01 18:16:48;;;;;;;;;;;8.30;80.40;;;7.12;57.73;96914.47;10239703;29;2436;-81
2021/03/01 18:28:03;;;;;;;;;;;8.10;81.50;;;6.76;59.52;96929.50;10145692;29;2627;-81
2021/03/01 18:39:07;;;;;;;;;;;9.10;83.40;;;6.65;60.24;96930.19;10279333;28;1910;-82
2021/03/01 18:50:08;;;;;;;;;;;7.90;84.00;;;6.30;61.48;96936.06;10283321;28;1604;-82
2021/03/01 19:01:22;;;;;;;;;;;7.30;85.10;;;6.20;62.19;96936.53;10183912;29;1947;-83
2021/03/01 19:12:36;;;;;;;;;;;7.60;86.30;;;6.01;63.36;96939.38;10192505;29;1202;-85
2021/03/01 19:18:20;;;;;;;;;;;8.20;87.20;;;5.79;63.99;96944.19;10223350;29;1951;-84
2021/03/01 19:23:52;;;;;;;;;;;7.50;87.80;;;5.80;64.36;96944.00;10225468;28;1322;-85
2021/03/01 19:29:10;;;;;;;;;;;;;;;;;;;;;
2021/03/01 19:34:44;;;;;;;;;;;8.20;88.70;;;5.76;64.25;96940.09;10234448;28;1619;-82
2021/03/01 19:39:58;;;;;;;;;;;9.20;89.50;;;5.73;64.33;96937.88;10283025;28;1910;-84
2021/03/01 19:50:37;;;;;;;;;;;8.40;89.80;;;5.57;65.08;96930.38;10281302;28;1733;-84
2021/03/01 19:55:52;;;;;;;;;;;7.70;89.90;;;5.66;65.14;96937.91;10279870;28;1183;-84
2021/03/01 20:06:38;;;;;;;;;;;7.80;90.50;;;5.55;65.72;96945.78;10279428;28;1670;-83
2021/03/01 20:11:54;;;;;;;;;;;6.60;90.20;;;5.41;66.62;96940.50;10282214;28;1261;-86
2021/03/01 20:17:03;;;;;;;;;;;6.50;90.60;;;5.21;67.29;96950.41;10278861;28;1615;-83
2021/03/01 20:22:12;;;;;;;;;;;6.40;91.20;;;5.32;66.65;96940.94;10282631;28;1891;-83
2021/03/01 20:27:14;;;;;;;;;;;6.30;91.70;;;5.36;66.66;96945.66;10275071;28;1324;-86
2021/03/01 20:32:50;;;;;;;;;;;6.60;91.70;;;5.25;66.94;96946.31;10296973;28;1559;-82
2021/03/01 20:38:11;;;;;;;;;;;6.80;92.10;;;5.37;66.05;96939.28;10298398;28;2049;-85
2021/03/01 21:00:53;;;;;;;;;;;7.20;92.00;;;5.06;66.94;96949.84;10272575;28;2095;-83
2021/03/01 21:06:28;;;;;;;;;;;6.80;92.10;;;4.96;67.26;96960.13;10253761;28;2077;-81
2021/03/01 21:11:43;;;;;;;;;;;7.60;93.00;;;4.70;67.75;96964.47;10288291;28;2012;-81
2021/03/01 21:16:47;;;;;;;;;;;7.00;93.10;;;4.55;68.48;96966.56;10280168;28;1953;-83
2021/03/01 21:22:00;;;;;;;;;;;6.50;93.80;;;4.37;69.88;96969.00;10285305;28;1943;-82
2021/03/01 21:27:07;;;;;;;;;;;5.50;94.50;;;4.16;70.93;96962.88;10276220;28;1951;-82
2021/03/01 21:32:25;;;;;;;;;;;6.30;95.50;;;4.15;70.69;96965.75;10284620;28;1983;-81
2021/03/01 21:37:36;;;;;;;;;;;5.30;95.80;;;4.28;70.64;96963.09;10264923;28;1977;-82
2021/03/01 21:42:42;;;;;;;;;;;6.50;97.00;;;4.11;70.79;96964.50;10279058;28;1944;-84
2021/03/01 21:48:02;;;;;;;;;;;5.40;96.20;;;4.01;71.35;96973.72;10295237;28;1901;-83
2021/03/01 21:53:07;;;;;;;;;;;5.10;96.80;;;3.87;71.91;96969.38;10287694;28;1945;-83
2021/03/01 21:58:10;;;;;;;;;;;5.20;97.50;;;3.79;72.73;96970.38;10280292;28;1966;-82
2021/03/01 22:03:18;;;;;;;;;;;5.00;98.10;;;3.70;72.81;96960.97;10281612;28;2099;-83
2021/03/01 22:08:21;;;;;;;;;;;5.70;98.90;;;3.71;73.18;96972.44;10286991;28;2080;-82
2021/03/01 22:13:43;;;;;;;;;;;4.80;99.10;;;3.64;73.45;96966.28;10282182;28;2031;-82
2021/03/01 22:18:46;;;;;;;;;;;5.00;99.60;;;3.63;73.19;96973.44;10289542;28;1942;-82
2021/03/01 22:23:53;;;;;;;;;;;4.90;99.90;;;3.60;73.84;96963.19;10278527;28;2180;-83
2021/03/01 22:28:58;;;;;;;;;;;5.10;99.90;;;3.53;73.56;96978.28;10296157;28;2050;-81
2021/03/01 22:34:17;;;;;;;;;;;4.50;99.90;;;3.52;74.05;96977.47;10320075;28;1817;-80
2021/03/01 22:39:22;;;;;;;;;;;4.50;99.90;;;3.45;74.04;96973.97;10305920;28;2260;-80
2021/03/01 22:44:32;;;;;;;;;;;5.70;99.90;;;3.45;74.28;96971.31;10295957;28;1977;-80
2021/03/01 22:49:35;;;;;;;;;;;4.50;99.90;;;3.37;74.64;96968.84;10309239;28;1977;-80
2021/03/01 22:54:43;;;;;;;;;;;4.30;99.90;;;3.21;75.44;96975.31;10302197;28;1960;-81
2021/03/01 22:59:56;;;;;;;;;;;4.50;99.90;;;3.25;74.92;96973.91;10296239;28;1988;-80
2021/03/01 23:05:05;;;;;;;;;;;4.20;99.90;;;3.23;74.64;96973.25;10298428;28;1949;-83
2021/03/01 23:10:11;;;;;;;;;;;5.40;99.90;;;3.24;74.80;96968.78;10279117;28;2335;-79
2021/03/01 23:15:35;;;;;;;;;;;5.10;99.90;;;3.11;75.26;96966.88;10294656;28;2028;-81
2021/03/01 23:20:44;;;;;;;;;;;5.60;99.90;;;3.02;75.14;96970.72;10270202;28;2049;-81
2021/03/01 23:25:54;;;;;;;;;;;4.20;99.90;;;2.95;75.41;96977.84;10263808;28;2048;-82
2021/03/01 23:31:44;;;;;;;;;;;5.20;99.90;;;2.75;76.51;96985.69;10271333;28;1932;-82
2021/03/01 23:37:07;;;;;;;;;;;4.70;99.90;;;2.57;76.80;96983.53;10272159;28;2107;-81
2021/03/01 23:42:11;;;;;;;;;;;4.20;99.90;;;2.50;76.55;96985.31;10277373;28;1930;-82
2021/03/01 23:47:32;;;;;;;;;;;3.70;99.90;;;2.80;76.10;96977.13;10291263;28;1902;-82
2021/03/01 23:52:46;;;;;;;;;;;5.40;99.90;;;2.74;76.44;96983.25;10284800;28;1927;-81
2021/03/01 23:57:56;;;;;;;;;;;3.80;99.90;;;2.80;75.50;96993.06;10292501;28;2065;-80
